Laurel, MD (20708)

9:07 PM EDT on July 03, 2015 (GMT -0400)
Snowden Pond at Montpelier | | Change Station
CLOSE
Current Station
Personal Weather Station
Location: Laurel, MD
Elevation: 200 ft
Nearby Weather Stations

Elev 200 ft 39.04 °N, 76.83 °W | Updated 3 minutes ago

Rain
Rain
70.8 °F
Feels Like 70 °F
N
0.0
Wind Variable Wind from NW

Today
High -- | Low -- °F
--% Chance of Precip.
Yesterday
High -- | Low -- °F
Precip. -- in
5:46 AM 8:36 PM
Waning Gibbous, 95% visible
Pressure 29.96 in
Visibility 7.0 miles
Clouds Scattered Clouds 4200 ft
Scattered Clouds 5500 ft
Mostly Cloudy 12000 ft
Heat Index 70 °F
Dew Point 65 °F
Humidity 83%
Rainfall 0.02 in
Snow Depth Not available.
UV 0 out of 12
Pollen .50 out of 12
Air Quality Not available.
Flu Activity Not available.
METAR KFME 040045Z AUTO 21003KT 7SM SCT042 SCT055 BKN120 20/18 A2996 RMK AO1

More Conditions Fewer Conditions

Pressure 29.96 in
Visibility 7.0 miles
Clouds Scattered Clouds 4200 ft
Scattered Clouds 5500 ft
Mostly Cloudy 12000 ft
Heat Index 70 °F
Dew Point 65 °F
Humidity 83%
Rainfall 0.02 in
Snow Depth Not available.
UV 0 out of 12
Pollen .50 out of 12
Air Quality Not available.
Flu Activity Not available.
METAR KFME 040045Z AUTO 21003KT 7SM SCT042 SCT055 BKN120 20/18 A2996 RMK AO1

More Conditions Fewer Conditions

10-Day Weather Forecast

×

Almanac

Astronomy

Jul. 03, 2015 Rise Set
Actual Time
Civil Twilight
Nautical Twilight
Astronomical Twilight
Moon
Length of Visible Light
Length of Day
Tomorrow will be .
, % of the Moon is Illuminated

Today's Extremes

State Highs State Lows

Community

WunderPhotos

Upload Photos

1,834,841 photos uploaded!

WunderBlogs® & News

Nearby

Air Quality

  Air Quality AQ Index Pollutant
Not available.

Snow Depth

Station Depth Elevation

Earthquake Activity

City Distance Mag. Time & Date
Minimum magnitude displayed is 2.5.

Coastal Water Temperatures

Place Temperature

Stations

Nearby Weather Stations

Station Location Temp. Windchill Dew Point Humidity Wind Precip. Elev Updated Type